<?xml version="1.0" encoding="UTF-8" standalone="no" ?>
<gpx xmlns="http://www.topografix.com/GPX/1/1" xmlns:xsi="http://www.w3.org/2001/XMLSchema-instance" xsi:schemaLocation="http://www.topografix.com/GPX/1/1 http://www.topografix.com/GPX/1/1/gpx.xsd" version="1.1" creator="VisuGPX - https://www.visugpx.com">
  <metadata>
    <name>Pointe du Château et le Gouffre</name>
    <desc><![CDATA[Au départ du Parking prés de [b]Porz Bugalé[/b]]]></desc>
  </metadata>
  <wpt lat="48.82234" lon="-3.4971">
    <ele>78.79</ele>
    <name><![CDATA[0000795]]></name>
  </wpt>
  <wpt lat="48.82234" lon="-3.4971">
    <ele>78.79</ele>
    <name><![CDATA[0000796]]></name>
  </wpt>
  <trk>
    <name><![CDATA[2026-08-08 09:09:12]]></name>
    <desc><![CDATA[<p>Type: Marche<br/>Heure de départ: 09:09 8 août 2026<br/>Heure d'arrivée: 12:53 9 août 2026<br/>Distance: 95,5 km (27:43)<br/>Temps déplacement: 08:29<br/>Vitesse moyenne: 3,45 km/h<br/>Vitesse en mouvement: 11,25 km/h<br/>Vitesse Max.: 65,25 km/h<br/>Altitude minimale: 42 m<br/>Altitude maximale: 150 m<br/>Vitesse de montée: 266,3 m/h<br/>Vitesse de descente: 211,1 m/h<br/>Dénivelé positif: 827 m<br/>Dénivelé négatif: 896 m<br/>Temps de montée: 03:06<br/>Temps de descente: 04:14<br/></p><hr align="center" width="480" style="height: 2px; width: 517px"/>]]></desc>
    <extensions>
      <line xmlns="http://www.topografix.com/GPX/gpx_style/0/2">
        <color>0000FF</color>
        <width>4</width>
      </line>
    </extensions>
    <trkseg>
      <trkpt lat="48.86587" lon="-3.23029">
        <ele>63.11</ele>
        <time>2026-08-08T08:38:00.000Z</time>
      </trkpt>
      <trkpt lat="48.86603" lon="-3.23043">
        <ele>63.7</ele>
        <time>2026-08-08T08:38:04.000Z</time>
      </trkpt>
      <trkpt lat="48.8661" lon="-3.2307">
        <ele>63.48</ele>
        <time>2026-08-08T08:38:12.000Z</time>
      </trkpt>
      <trkpt lat="48.86592" lon="-3.23066">
        <ele>62.84</ele>
        <time>2026-08-08T08:38:18.000Z</time>
      </trkpt>
      <trkpt lat="48.86611" lon="-3.23067">
        <ele>63.03</ele>
        <time>2026-08-08T08:40:14.000Z</time>
      </trkpt>
      <trkpt lat="48.86628" lon="-3.23078">
        <ele>64.45</ele>
        <time>2026-08-08T08:40:34.000Z</time>
      </trkpt>
      <trkpt lat="48.8664" lon="-3.23102">
        <ele>63.99</ele>
        <time>2026-08-08T08:40:52.000Z</time>
      </trkpt>
      <trkpt lat="48.86652" lon="-3.23125">
        <ele>62.86</ele>
        <time>2026-08-08T08:41:26.000Z</time>
      </trkpt>
      <trkpt lat="48.86655" lon="-3.23154">
        <ele>62.49</ele>
        <time>2026-08-08T08:41:42.000Z</time>
      </trkpt>
      <trkpt lat="48.86666" lon="-3.23177">
        <ele>61.21</ele>
        <time>2026-08-08T08:42:02.000Z</time>
      </trkpt>
      <trkpt lat="48.86684" lon="-3.23167">
        <ele>63.33</ele>
        <time>2026-08-08T08:42:19.999Z</time>
      </trkpt>
      <trkpt lat="48.86698" lon="-3.2315">
        <ele>67.66</ele>
        <time>2026-08-08T08:42:41.999Z</time>
      </trkpt>
      <trkpt lat="48.86715" lon="-3.23137">
        <ele>68.8</ele>
        <time>2026-08-08T08:43:23.999Z</time>
      </trkpt>
      <trkpt lat="48.86732" lon="-3.23128">
        <ele>69.26</ele>
        <time>2026-08-08T08:43:39.999Z</time>
      </trkpt>
      <trkpt lat="48.86725" lon="-3.231">
        <ele>70.12</ele>
        <time>2026-08-08T08:45:13.999Z</time>
      </trkpt>
      <trkpt lat="48.86724" lon="-3.23072">
        <ele>66.83</ele>
        <time>2026-08-08T08:45:33.999Z</time>
      </trkpt>
      <trkpt lat="48.8673" lon="-3.23046">
        <ele>67.02</ele>
        <time>2026-08-08T08:45:51.999Z</time>
      </trkpt>
      <trkpt lat="48.86744" lon="-3.23026">
        <ele>66.92</ele>
        <time>2026-08-08T08:46:11.999Z</time>
      </trkpt>
      <trkpt lat="48.86758" lon="-3.23008">
        <ele>65.48</ele>
        <time>2026-08-08T08:46:29.999Z</time>
      </trkpt>
      <trkpt lat="48.8676" lon="-3.2298">
        <ele>65.98</ele>
        <time>2026-08-08T08:46:49.999Z</time>
      </trkpt>
      <trkpt lat="48.86758" lon="-3.22952">
        <ele>64.47</ele>
        <time>2026-08-08T08:47:07.999Z</time>
      </trkpt>
      <trkpt lat="48.86748" lon="-3.22927">
        <ele>64.34</ele>
        <time>2026-08-08T08:47:23.999Z</time>
      </trkpt>
      <trkpt lat="48.86739" lon="-3.22902">
        <ele>63.49</ele>
        <time>2026-08-08T08:47:41.999Z</time>
      </trkpt>
      <trkpt lat="48.86734" lon="-3.22875">
        <ele>64.07</ele>
        <time>2026-08-08T08:47:57.999Z</time>
      </trkpt>
      <trkpt lat="48.86724" lon="-3.2285">
        <ele>64.41</ele>
        <time>2026-08-08T08:48:19.999Z</time>
      </trkpt>
      <trkpt lat="48.86718" lon="-3.22822">
        <ele>64.08</ele>
        <time>2026-08-08T08:48:37.999Z</time>
      </trkpt>
      <trkpt lat="48.86703" lon="-3.22807">
        <ele>62.41</ele>
        <time>2026-08-08T08:48:53.999Z</time>
      </trkpt>
      <trkpt lat="48.86692" lon="-3.22783">
        <ele>61.14</ele>
        <time>2026-08-08T08:50:09.999Z</time>
      </trkpt>
      <trkpt lat="48.86689" lon="-3.22755">
        <ele>60.62</ele>
        <time>2026-08-08T08:50:25.999Z</time>
      </trkpt>
      <trkpt lat="48.86691" lon="-3.22727">
        <ele>61.04</ele>
        <time>2026-08-08T08:50:42.000Z</time>
      </trkpt>
      <trkpt lat="48.86694" lon="-3.22699">
        <ele>60.91</ele>
        <time>2026-08-08T08:51:00.000Z</time>
      </trkpt>
      <trkpt lat="48.86709" lon="-3.22677">
        <ele>60.28</ele>
        <time>2026-08-08T08:51:18.000Z</time>
      </trkpt>
      <trkpt lat="48.86723" lon="-3.22656">
        <ele>60.81</ele>
        <time>2026-08-08T08:51:32.000Z</time>
      </trkpt>
      <trkpt lat="48.86739" lon="-3.2264">
        <ele>60.46</ele>
        <time>2026-08-08T08:51:48.000Z</time>
      </trkpt>
      <trkpt lat="48.86757" lon="-3.22635">
        <ele>60.87</ele>
        <time>2026-08-08T08:52:06.000Z</time>
      </trkpt>
      <trkpt lat="48.86776" lon="-3.22632">
        <ele>61.56</ele>
        <time>2026-08-08T08:52:30.000Z</time>
      </trkpt>
      <trkpt lat="48.86791" lon="-3.22615">
        <ele>61.41</ele>
        <time>2026-08-08T08:53:26.000Z</time>
      </trkpt>
      <trkpt lat="48.8681" lon="-3.2262">
        <ele>62.12</ele>
        <time>2026-08-08T08:53:48.000Z</time>
      </trkpt>
      <trkpt lat="48.86828" lon="-3.22634">
        <ele>62.47</ele>
        <time>2026-08-08T08:54:25.000Z</time>
      </trkpt>
      <trkpt lat="48.86824" lon="-3.22606">
        <ele>63.01</ele>
        <time>2026-08-08T08:55:23.000Z</time>
      </trkpt>
      <trkpt lat="48.86844" lon="-3.22598">
        <ele>62.62</ele>
        <time>2026-08-08T08:55:39.000Z</time>
      </trkpt>
      <trkpt lat="48.86861" lon="-3.22588">
        <ele>62.65</ele>
        <time>2026-08-08T08:55:55.000Z</time>
      </trkpt>
      <trkpt lat="48.86879" lon="-3.22578">
        <ele>63.04</ele>
        <time>2026-08-08T08:56:13.000Z</time>
      </trkpt>
      <trkpt lat="48.86898" lon="-3.22575">
        <ele>63.56</ele>
        <time>2026-08-08T08:56:29.000Z</time>
      </trkpt>
      <trkpt lat="48.86915" lon="-3.22559">
        <ele>63.84</ele>
        <time>2026-08-08T08:56:47.000Z</time>
      </trkpt>
      <trkpt lat="48.86933" lon="-3.22553">
        <ele>63.95</ele>
        <time>2026-08-08T08:57:05.000Z</time>
      </trkpt>
      <trkpt lat="48.86951" lon="-3.22555">
        <ele>64.28</ele>
        <time>2026-08-08T08:57:21.000Z</time>
      </trkpt>
      <trkpt lat="48.86959" lon="-3.22529">
        <ele>68.18</ele>
        <time>2026-08-08T08:57:49.000Z</time>
      </trkpt>
      <trkpt lat="48.86958" lon="-3.22501">
        <ele>67.01</ele>
        <time>2026-08-08T08:58:43.000Z</time>
      </trkpt>
      <trkpt lat="48.86959" lon="-3.22472">
        <ele>66.68</ele>
        <time>2026-08-08T08:59:04.999Z</time>
      </trkpt>
      <trkpt lat="48.86973" lon="-3.22454">
        <ele>64.3</ele>
        <time>2026-08-08T08:59:28.999Z</time>
      </trkpt>
      <trkpt lat="48.86958" lon="-3.22472">
        <ele>65.51</ele>
        <time>2026-08-08T09:02:38.999Z</time>
      </trkpt>
      <trkpt lat="48.86941" lon="-3.22488">
        <ele>67</ele>
        <time>2026-08-08T09:03:00.999Z</time>
      </trkpt>
      <trkpt lat="48.86942" lon="-3.22515">
        <ele>66.56</ele>
        <time>2026-08-08T09:03:34.999Z</time>
      </trkpt>
      <trkpt lat="48.86944" lon="-3.22543">
        <ele>66.21</ele>
        <time>2026-08-08T09:04:06.999Z</time>
      </trkpt>
      <trkpt lat="48.86928" lon="-3.22554">
        <ele>64.89</ele>
        <time>2026-08-08T09:04:26.999Z</time>
      </trkpt>
      <trkpt lat="48.8691" lon="-3.22562">
        <ele>65.13</ele>
        <time>2026-08-08T09:04:44.999Z</time>
      </trkpt>
      <trkpt lat="48.86895" lon="-3.22576">
        <ele>65.13</ele>
        <time>2026-08-08T09:05:02.999Z</time>
      </trkpt>
      <trkpt lat="48.86876" lon="-3.2258">
        <ele>62.72</ele>
        <time>2026-08-08T09:05:20.999Z</time>
      </trkpt>
      <trkpt lat="48.86858" lon="-3.22588">
        <ele>62.49</ele>
        <time>2026-08-08T09:05:38.999Z</time>
      </trkpt>
      <trkpt lat="48.86838" lon="-3.22597">
        <ele>63.47</ele>
        <time>2026-08-08T09:05:58.999Z</time>
      </trkpt>
      <trkpt lat="48.86821" lon="-3.2261">
        <ele>62.72</ele>
        <time>2026-08-08T09:06:18.999Z</time>
      </trkpt>
      <trkpt lat="48.86804" lon="-3.22621">
        <ele>63.44</ele>
        <time>2026-08-08T09:06:46.999Z</time>
      </trkpt>
      <trkpt lat="48.86785" lon="-3.22626">
        <ele>62.98</ele>
        <time>2026-08-08T09:07:27.000Z</time>
      </trkpt>
      <trkpt lat="48.86767" lon="-3.22636">
        <ele>62.66</ele>
        <time>2026-08-08T09:07:43.000Z</time>
      </trkpt>
      <trkpt lat="48.86749" lon="-3.22638">
        <ele>62</ele>
        <time>2026-08-08T09:07:59.000Z</time>
      </trkpt>
      <trkpt lat="48.86732" lon="-3.22647">
        <ele>61.01</ele>
        <time>2026-08-08T09:08:15.000Z</time>
      </trkpt>
      <trkpt lat="48.86717" lon="-3.22664">
        <ele>61</ele>
        <time>2026-08-08T09:08:31.000Z</time>
      </trkpt>
      <trkpt lat="48.86706" lon="-3.22686">
        <ele>61.28</ele>
        <time>2026-08-08T09:08:49.000Z</time>
      </trkpt>
      <trkpt lat="48.86692" lon="-3.22709">
        <ele>61.74</ele>
        <time>2026-08-08T09:09:07.000Z</time>
      </trkpt>
      <trkpt lat="48.86689" lon="-3.22737">
        <ele>61.95</ele>
        <time>2026-08-08T09:09:23.000Z</time>
      </trkpt>
      <trkpt lat="48.86689" lon="-3.22768">
        <ele>61.55</ele>
        <time>2026-08-08T09:09:41.000Z</time>
      </trkpt>
      <trkpt lat="48.86697" lon="-3.22795">
        <ele>61.83</ele>
        <time>2026-08-08T09:09:59.000Z</time>
      </trkpt>
      <trkpt lat="48.86708" lon="-3.22817">
        <ele>63.06</ele>
        <time>2026-08-08T09:10:17.000Z</time>
      </trkpt>
      <trkpt lat="48.86723" lon="-3.22837">
        <ele>64.22</ele>
        <time>2026-08-08T09:10:37.000Z</time>
      </trkpt>
      <trkpt lat="48.8673" lon="-3.22863">
        <ele>65.01</ele>
        <time>2026-08-08T09:10:55.000Z</time>
      </trkpt>
      <trkpt lat="48.86738" lon="-3.22889">
        <ele>64.81</ele>
        <time>2026-08-08T09:11:11.000Z</time>
      </trkpt>
      <trkpt lat="48.86745" lon="-3.22918">
        <ele>64.35</ele>
        <time>2026-08-08T09:11:29.000Z</time>
      </trkpt>
      <trkpt lat="48.86754" lon="-3.22942">
        <ele>64.09</ele>
        <time>2026-08-08T09:11:45.000Z</time>
      </trkpt>
      <trkpt lat="48.86756" lon="-3.22972">
        <ele>65.79</ele>
        <time>2026-08-08T09:12:13.000Z</time>
      </trkpt>
      <trkpt lat="48.86763" lon="-3.22997">
        <ele>66.85</ele>
        <time>2026-08-08T09:12:29.000Z</time>
      </trkpt>
      <trkpt lat="48.86781" lon="-3.23007">
        <ele>67.65</ele>
        <time>2026-08-08T09:13:01.000Z</time>
      </trkpt>
      <trkpt lat="48.868" lon="-3.23006">
        <ele>66.31</ele>
        <time>2026-08-08T09:13:23.000Z</time>
      </trkpt>
      <trkpt lat="48.86819" lon="-3.22999">
        <ele>65.15</ele>
        <time>2026-08-08T09:13:55.000Z</time>
      </trkpt>
      <trkpt lat="48.86835" lon="-3.22989">
        <ele>64</ele>
        <time>2026-08-08T09:14:37.000Z</time>
      </trkpt>
      <trkpt lat="48.86841" lon="-3.23017">
        <ele>62.93</ele>
        <time>2026-08-08T09:15:23.000Z</time>
      </trkpt>
      <trkpt lat="48.86851" lon="-3.2304">
        <ele>60.63</ele>
        <time>2026-08-08T09:17:00.999Z</time>
      </trkpt>
      <trkpt lat="48.8684" lon="-3.23017">
        <ele>59.33</ele>
        <time>2026-08-08T09:20:58.999Z</time>
      </trkpt>
      <trkpt lat="48.86826" lon="-3.22998">
        <ele>64.29</ele>
        <time>2026-08-08T09:21:42.999Z</time>
      </trkpt>
      <trkpt lat="48.86807" lon="-3.22998">
        <ele>65.37</ele>
        <time>2026-08-08T09:21:58.999Z</time>
      </trkpt>
      <trkpt lat="48.86788" lon="-3.23008">
        <ele>66.21</ele>
        <time>2026-08-08T09:22:16.999Z</time>
      </trkpt>
      <trkpt lat="48.8677" lon="-3.23011">
        <ele>67.9</ele>
        <time>2026-08-08T09:22:36.999Z</time>
      </trkpt>
      <trkpt lat="48.86751" lon="-3.23013">
        <ele>68.57</ele>
        <time>2026-08-08T09:23:00.999Z</time>
      </trkpt>
      <trkpt lat="48.86738" lon="-3.23033">
        <ele>69.73</ele>
        <time>2026-08-08T09:23:18.999Z</time>
      </trkpt>
      <trkpt lat="48.86726" lon="-3.23054">
        <ele>70.87</ele>
        <time>2026-08-08T09:23:36.999Z</time>
      </trkpt>
      <trkpt lat="48.8672" lon="-3.23081">
        <ele>71.16</ele>
        <time>2026-08-08T09:23:53.000Z</time>
      </trkpt>
      <trkpt lat="48.86712" lon="-3.23106">
        <ele>71.67</ele>
        <time>2026-08-08T09:24:09.000Z</time>
      </trkpt>
      <trkpt lat="48.86707" lon="-3.23134">
        <ele>71.5</ele>
        <time>2026-08-08T09:24:27.000Z</time>
      </trkpt>
      <trkpt lat="48.86695" lon="-3.23157">
        <ele>69.9</ele>
        <time>2026-08-08T09:24:47.000Z</time>
      </trkpt>
      <trkpt lat="48.86679" lon="-3.2317">
        <ele>66.79</ele>
        <time>2026-08-08T09:25:07.000Z</time>
      </trkpt>
      <trkpt lat="48.86663" lon="-3.23185">
        <ele>65.8</ele>
        <time>2026-08-08T09:25:35.000Z</time>
      </trkpt>
      <trkpt lat="48.86661" lon="-3.23212">
        <ele>64.21</ele>
        <time>2026-08-08T09:25:49.000Z</time>
      </trkpt>
      <trkpt lat="48.86657" lon="-3.23239">
        <ele>63.32</ele>
        <time>2026-08-08T09:26:03.000Z</time>
      </trkpt>
      <trkpt lat="48.86654" lon="-3.23269">
        <ele>62.6</ele>
        <time>2026-08-08T09:26:19.000Z</time>
      </trkpt>
      <trkpt lat="48.86652" lon="-3.23297">
        <ele>64.04</ele>
        <time>2026-08-08T09:26:59.000Z</time>
      </trkpt>
      <trkpt lat="48.86645" lon="-3.23324">
        <ele>64.28</ele>
        <time>2026-08-08T09:27:19.000Z</time>
      </trkpt>
      <trkpt lat="48.8663" lon="-3.23341">
        <ele>63.63</ele>
        <time>2026-08-08T09:27:49.000Z</time>
      </trkpt>
      <trkpt lat="48.86612" lon="-3.23351">
        <ele>64.91</ele>
        <time>2026-08-08T09:28:05.000Z</time>
      </trkpt>
      <trkpt lat="48.86595" lon="-3.23367">
        <ele>64.27</ele>
        <time>2026-08-08T09:28:21.000Z</time>
      </trkpt>
      <trkpt lat="48.86581" lon="-3.23385">
        <ele>63.54</ele>
        <time>2026-08-08T09:28:35.000Z</time>
      </trkpt>
      <trkpt lat="48.8657" lon="-3.23407">
        <ele>62.46</ele>
        <time>2026-08-08T09:28:49.000Z</time>
      </trkpt>
      <trkpt lat="48.86568" lon="-3.23436">
        <ele>61.81</ele>
        <time>2026-08-08T09:29:03.000Z</time>
      </trkpt>
      <trkpt lat="48.86557" lon="-3.23459">
        <ele>62.54</ele>
        <time>2026-08-08T09:29:27.000Z</time>
      </trkpt>
      <trkpt lat="48.86571" lon="-3.23478">
        <ele>61.69</ele>
        <time>2026-08-08T09:30:35.000Z</time>
      </trkpt>
      <trkpt lat="48.8658" lon="-3.23504">
        <ele>61.83</ele>
        <time>2026-08-08T09:30:51.000Z</time>
      </trkpt>
      <trkpt lat="48.86587" lon="-3.2353">
        <ele>61.71</ele>
        <time>2026-08-08T09:31:07.000Z</time>
      </trkpt>
      <trkpt lat="48.86591" lon="-3.23559">
        <ele>61.96</ele>
        <time>2026-08-08T09:31:23.000Z</time>
      </trkpt>
      <trkpt lat="48.86593" lon="-3.23587">
        <ele>62.35</ele>
        <time>2026-08-08T09:31:39.000Z</time>
      </trkpt>
      <trkpt lat="48.86608" lon="-3.23605">
        <ele>63.31</ele>
        <time>2026-08-08T09:31:55.000Z</time>
      </trkpt>
      <trkpt lat="48.86623" lon="-3.23621">
        <ele>62.79</ele>
        <time>2026-08-08T09:32:16.999Z</time>
      </trkpt>
      <trkpt lat="48.86634" lon="-3.23647">
        <ele>62.71</ele>
        <time>2026-08-08T09:32:32.999Z</time>
      </trkpt>
      <trkpt lat="48.8665" lon="-3.23667">
        <ele>62.79</ele>
        <time>2026-08-08T09:32:50.999Z</time>
      </trkpt>
      <trkpt lat="48.86663" lon="-3.23687">
        <ele>63.63</ele>
        <time>2026-08-08T09:33:06.999Z</time>
      </trkpt>
      <trkpt lat="48.86668" lon="-3.23714">
        <ele>65.07</ele>
        <time>2026-08-08T09:33:22.999Z</time>
      </trkpt>
      <trkpt lat="48.86669" lon="-3.23743">
        <ele>67.42</ele>
        <time>2026-08-08T09:33:42.999Z</time>
      </trkpt>
      <trkpt lat="48.86682" lon="-3.23767">
        <ele>68.26</ele>
        <time>2026-08-08T09:34:00.999Z</time>
      </trkpt>
      <trkpt lat="48.86697" lon="-3.23785">
        <ele>67.87</ele>
        <time>2026-08-08T09:34:26.999Z</time>
      </trkpt>
      <trkpt lat="48.86715" lon="-3.23793">
        <ele>68.33</ele>
        <time>2026-08-08T09:35:02.999Z</time>
      </trkpt>
      <trkpt lat="48.86721" lon="-3.23822">
        <ele>65.12</ele>
        <time>2026-08-08T09:36:10.999Z</time>
      </trkpt>
      <trkpt lat="48.86712" lon="-3.23797">
        <ele>68.52</ele>
        <time>2026-08-08T09:37:14.999Z</time>
      </trkpt>
      <trkpt lat="48.86693" lon="-3.23791">
        <ele>72.03</ele>
        <time>2026-08-08T09:38:22.999Z</time>
      </trkpt>
      <trkpt lat="48.86674" lon="-3.23784">
        <ele>71.2</ele>
        <time>2026-08-08T09:39:18.999Z</time>
      </trkpt>
      <trkpt lat="48.86655" lon="-3.23792">
        <ele>69.68</ele>
        <time>2026-08-08T09:40:10.999Z</time>
      </trkpt>
      <trkpt lat="48.86635" lon="-3.23783">
        <ele>70.94</ele>
        <time>2026-08-08T09:40:29.000Z</time>
      </trkpt>
      <trkpt lat="48.86629" lon="-3.23756">
        <ele>70.34</ele>
        <time>2026-08-08T09:40:53.000Z</time>
      </trkpt>
      <trkpt lat="48.86616" lon="-3.23734">
        <ele>70.71</ele>
        <time>2026-08-08T09:41:13.000Z</time>
      </trkpt>
      <trkpt lat="48.866" lon="-3.23749">
        <ele>70.66</ele>
        <time>2026-08-08T09:41:43.000Z</time>
      </trkpt>
      <trkpt lat="48.86593" lon="-3.23776">
        <ele>70.23</ele>
        <time>2026-08-08T09:41:59.000Z</time>
      </trkpt>
      <trkpt lat="48.86591" lon="-3.23803">
        <ele>73.81</ele>
        <time>2026-08-08T09:43:21.000Z</time>
      </trkpt>
      <trkpt lat="48.86579" lon="-3.2378">
        <ele>69.5</ele>
        <time>2026-08-08T09:44:51.000Z</time>
      </trkpt>
      <trkpt lat="48.86561" lon="-3.23775">
        <ele>66.11</ele>
        <time>2026-08-08T09:45:09.000Z</time>
      </trkpt>
      <trkpt lat="48.86548" lon="-3.23754">
        <ele>64.3</ele>
        <time>2026-08-08T09:45:27.000Z</time>
      </trkpt>
      <trkpt lat="48.86537" lon="-3.23731">
        <ele>63.7</ele>
        <time>2026-08-08T09:45:43.000Z</time>
      </trkpt>
      <trkpt lat="48.86525" lon="-3.23706">
        <ele>62.52</ele>
        <time>2026-08-08T09:46:01.000Z</time>
      </trkpt>
      <trkpt lat="48.86537" lon="-3.23684">
        <ele>62.26</ele>
        <time>2026-08-08T09:46:17.000Z</time>
      </trkpt>
      <trkpt lat="48.8655" lon="-3.23662">
        <ele>62.41</ele>
        <time>2026-08-08T09:46:33.000Z</time>
      </trkpt>
      <trkpt lat="48.86564" lon="-3.23641">
        <ele>62.34</ele>
        <time>2026-08-08T09:46:49.000Z</time>
      </trkpt>
      <trkpt lat="48.86578" lon="-3.23619">
        <ele>62.32</ele>
        <time>2026-08-08T09:47:07.000Z</time>
      </trkpt>
      <trkpt lat="48.86589" lon="-3.23597">
        <ele>62.4</ele>
        <time>2026-08-08T09:47:23.000Z</time>
      </trkpt>
      <trkpt lat="48.8659" lon="-3.23567">
        <ele>62.35</ele>
        <time>2026-08-08T09:47:41.000Z</time>
      </trkpt>
      <trkpt lat="48.86591" lon="-3.2354">
        <ele>61.62</ele>
        <time>2026-08-08T09:48:05.000Z</time>
      </trkpt>
      <trkpt lat="48.86584" lon="-3.23514">
        <ele>62.04</ele>
        <time>2026-08-08T09:48:48.999Z</time>
      </trkpt>
      <trkpt lat="48.86576" lon="-3.23488">
        <ele>61.9</ele>
        <time>2026-08-08T09:49:04.999Z</time>
      </trkpt>
      <trkpt lat="48.86569" lon="-3.23461">
        <ele>61.81</ele>
        <time>2026-08-08T09:49:20.999Z</time>
      </trkpt>
      <trkpt lat="48.86568" lon="-3.23431">
        <ele>61.87</ele>
        <time>2026-08-08T09:49:36.999Z</time>
      </trkpt>
      <trkpt lat="48.86571" lon="-3.23401">
        <ele>61.67</ele>
        <time>2026-08-08T09:49:52.999Z</time>
      </trkpt>
      <trkpt lat="48.86584" lon="-3.23382">
        <ele>62.46</ele>
        <time>2026-08-08T09:50:10.999Z</time>
      </trkpt>
      <trkpt lat="48.86598" lon="-3.23363">
        <ele>63.43</ele>
        <time>2026-08-08T09:50:28.999Z</time>
      </trkpt>
      <trkpt lat="48.86615" lon="-3.2335">
        <ele>64.94</ele>
        <time>2026-08-08T09:50:46.999Z</time>
      </trkpt>
      <trkpt lat="48.86633" lon="-3.23337">
        <ele>64.3</ele>
        <time>2026-08-08T09:51:06.999Z</time>
      </trkpt>
      <trkpt lat="48.86647" lon="-3.23317">
        <ele>64.24</ele>
        <time>2026-08-08T09:51:24.999Z</time>
      </trkpt>
      <trkpt lat="48.86656" lon="-3.23293">
        <ele>64.2</ele>
        <time>2026-08-08T09:52:10.999Z</time>
      </trkpt>
      <trkpt lat="48.86654" lon="-3.23265">
        <ele>64.05</ele>
        <time>2026-08-08T09:53:04.999Z</time>
      </trkpt>
      <trkpt lat="48.86657" lon="-3.23237">
        <ele>63.03</ele>
        <time>2026-08-08T09:53:20.999Z</time>
      </trkpt>
      <trkpt lat="48.86663" lon="-3.23208">
        <ele>63.05</ele>
        <time>2026-08-08T09:53:36.999Z</time>
      </trkpt>
      <trkpt lat="48.86665" lon="-3.23179">
        <ele>64.03</ele>
        <time>2026-08-08T09:53:54.999Z</time>
      </trkpt>
      <trkpt lat="48.86653" lon="-3.23156">
        <ele>65.14</ele>
        <time>2026-08-08T09:54:10.999Z</time>
      </trkpt>
      <trkpt lat="48.86652" lon="-3.23127">
        <ele>65.46</ele>
        <time>2026-08-08T09:54:30.999Z</time>
      </trkpt>
      <trkpt lat="48.86643" lon="-3.23104">
        <ele>66</ele>
        <time>2026-08-08T09:54:44.999Z</time>
      </trkpt>
      <trkpt lat="48.86632" lon="-3.2308">
        <ele>66.17</ele>
        <time>2026-08-08T09:55:00.999Z</time>
      </trkpt>
      <trkpt lat="48.86618" lon="-3.2306">
        <ele>66.06</ele>
        <time>2026-08-08T09:55:18.999Z</time>
      </trkpt>
      <trkpt lat="48.86598" lon="-3.23065">
        <ele>64.69</ele>
        <time>2026-08-08T09:55:38.999Z</time>
      </trkpt>
      <trkpt lat="48.8658" lon="-3.23059">
        <ele>63.69</ele>
        <time>2026-08-08T09:55:58.999Z</time>
      </trkpt>
      <trkpt lat="48.86599" lon="-3.23072">
        <ele>62.68</ele>
        <time>2026-08-08T10:00:27.000Z</time>
      </trkpt>
      <trkpt lat="48.86605" lon="-3.23046">
        <ele>63.71</ele>
        <time>2026-08-08T10:00:39.000Z</time>
      </trkpt>
      <trkpt lat="48.86587" lon="-3.23028">
        <ele>63.28</ele>
        <time>2026-08-08T10:00:43.000Z</time>
      </trkpt>
    </trkseg>
  </trk>
</gpx>